Time;durP1;ratioP1;P1;durP2;ratioP2;P2;SDS_P1;SDS_P2;PMS_P1;PMS_P2;Temp;Humidity;BMP_temperature;BMP_pressure;BME280_temperature;BME280_humidity;BME280_pressure;Samples;Min_cycle;Max_cycle;Signal;HPM_P1;HPM_P2
2023/05/19 00:00:14;;;;;;;29.83;19.88;;;;;;;;;;5094692;28;20055;-71
2023/05/19 00:02:42;;;;;;;29.10;18.80;;;;;;;;;;5094109;28;20016;-71
2023/05/19 00:05:09;;;;;;;36.97;19.67;;;;;;;;;;5094374;28;20115;-71
2023/05/19 00:07:36;;;;;;;32.20;20.25;;;;;;;;;;5076314;28;20028;-72
2023/05/19 00:10:03;;;;;;;36.47;21.10;;;;;;;;;;5094856;28;20028;-72
2023/05/19 00:12:29;;;;;;;37.53;20.42;;;384.80;2329.60;;;;;;5075489;28;20040;-71
2023/05/19 00:14:55;;;;;;;33.63;21.38;;;384.70;2329.60;;;;;;5094456;28;20028;-70
2023/05/19 00:17:21;;;;;;;35.90;19.95;;;384.60;2329.60;;;;;;5094443;28;20024;-71
2023/05/19 00:19:46;;;;;;;33.90;21.92;;;384.70;1945.60;;;;;;5094272;28;20024;-71
2023/05/19 00:22:13;;;;;;;36.92;22.02;;;384.70;1971.20;;;;;;5075965;28;20038;-71
2023/05/19 00:24:38;;;;;;;32.38;20.45;;;384.70;2048.00;;;;;;5094164;28;20032;-72
2023/05/19 00:27:04;;;;;;;36.63;20.77;;;384.70;2329.60;;;;;;5094196;28;20028;-72
2023/05/19 00:29:30;;;;;;;37.17;20.67;;;384.70;2329.60;;;;;;5094174;28;20081;-74
2023/05/19 00:31:56;;;;;;;33.95;20.88;;;384.70;2329.60;;;;;;5094177;28;20107;-71
2023/05/19 00:34:21;;;;;;;33.70;19.90;;;384.70;2329.60;;;;;;5093349;28;20051;-71
2023/05/19 00:36:47;;;;;;;36.33;21.55;;;384.80;1945.60;;;;;;5072802;28;20154;-71
2023/05/19 00:39:13;;;;;;;31.90;20.23;;;384.90;2073.60;;;;;;5057329;28;20031;-78
2023/05/19 00:41:38;;;;;;;35.90;20.80;;;384.90;2048.00;;;;;;5055091;28;20036;-72
2023/05/19 00:44:05;;;;;;;32.20;20.08;;;384.90;2073.60;;;;;;5072672;28;20028;-76
2023/05/19 00:46:31;;;;;;;29.50;18.70;;;384.90;2329.60;;;;;;5075507;28;20016;-70
2023/05/19 00:48:57;;;;;;;32.10;19.98;;;384.90;2329.60;;;;;;5072807;28;20028;-72
2023/05/19 00:51:25;;;;;;;26.33;18.58;;;384.90;2329.60;;;;;;5075333;28;20021;-71
2023/05/19 00:53:51;;;;;;;33.53;21.35;;;384.90;2329.60;;;;;;5068849;28;20021;-78
2023/05/19 00:56:18;;;;;;;30.17;19.15;;;384.90;2329.60;;;;;;5072699;28;20430;-79
2023/05/19 00:58:44;;;;;;;31.00;18.23;;;384.90;2329.60;;;;;;5075415;28;20029;-71
2023/05/19 01:01:10;;;;;;;31.35;20.52;;;384.90;2329.60;;;;;;5072546;28;20051;-71
2023/05/19 01:03:38;;;;;;;31.02;19.15;;;384.90;2329.60;;;;;;5075000;28;20463;-71
2023/05/19 01:06:04;;;;;;;33.17;19.10;;;384.90;2278.40;;;;;;5075293;28;20470;-78
2023/05/19 01:08:35;;;;;;;32.55;19.20;;;384.90;2329.60;;;;;;5086511;28;20017;-75
2023/05/19 01:11:01;;;;;;;32.33;19.73;;;384.90;1971.20;;;;;;5075395;28;20477;-76
2023/05/19 01:13:28;;;;;;;36.88;20.05;;;384.90;2329.60;;;;;;5072484;28;20025;-71
2023/05/19 01:16:07;;;;;;;33.47;18.10;;;384.90;2329.60;;;;;;5072459;28;20024;-78
2023/05/19 01:18:49;;;;;;;36.08;18.98;;;384.90;2329.60;;;;;;5069863;28;20032;-73
2023/05/19 01:21:35;;;;;;;29.30;18.80;;;409.60;2355.20;;;;;;5055062;28;20429;-72
2023/05/19 01:24:07;;;;;;;31.77;19.02;;;409.60;2329.60;;;;;;5070884;28;20019;-72
2023/05/19 01:26:57;;;;;;;30.88;19.33;;;409.60;2355.20;;;;;;5070004;28;20043;-70
2023/05/19 01:30:07;;;;;;;32.83;19.15;;;409.60;2329.60;;;;;;5071213;28;20048;-71
2023/05/19 01:32:34;;;;;;;30.40;19.83;;;384.90;2329.60;;;;;;5070119;28;20529;-77
2023/05/19 01:35:02;;;;;;;31.25;19.83;;;384.90;2329.60;;;;;;5089878;28;20053;-72
2023/05/19 01:37:29;;;;;;;33.95;19.52;;;384.90;2329.60;;;;;;5092552;28;20024;-72
2023/05/19 01:39:55;;;;;;;43.78;20.67;;;384.70;2329.60;;;;;;5092169;28;20550;-72
2023/05/19 01:42:22;;;;;;;38.22;21.30;;;384.70;2329.60;;;;;;5092143;28;20039;-72
2023/05/19 01:44:48;;;;;;;40.13;21.48;;;384.70;2329.60;;;;;;5090977;28;20028;-72
2023/05/19 01:47:14;;;;;;;34.83;21.27;;;384.70;2329.60;;;;;;5088973;28;20016;-72
2023/05/19 01:49:40;;;;;;;35.97;22.17;;;384.70;2329.60;;;;;;5091490;28;20073;-72
2023/05/19 01:52:06;;;;;;;39.13;22.45;;;384.80;2329.60;;;;;;5091822;28;20095;-76
2023/05/19 01:54:31;;;;;;;42.90;21.70;;;384.90;2329.60;;;;;;5091434;28;20031;-71
2023/05/19 01:57:03;;;;;;;47.90;22.65;;;384.90;2329.60;;;;;;5091629;28;20539;-78
2023/05/19 01:59:47;;;;;;;56.72;22.80;;;384.90;2329.60;;;;;;5091598;28;20020;-72
2023/05/19 02:02:36;;;;;;;34.35;20.63;;;384.80;2329.60;;;;;;5091282;28;20718;-78
2023/05/19 02:05:12;;;;;;;38.55;21.52;;;384.90;2329.60;;;;;;5080473;28;20044;-76
2023/05/19 02:07:51;;;;;;;44.55;22.10;;;409.60;2355.20;;;;;;5075228;28;20114;-73
2023/05/19 02:10:29;;;;;;;49.38;22.90;;;409.60;2355.20;;;;;;5092908;28;20095;-77
2023/05/19 02:12:59;;;;;;;41.92;22.73;;;384.90;2329.60;;;;;;5074994;28;20023;-74
2023/05/19 02:15:29;;;;;;;50.88;22.05;;;409.60;2355.20;;;;;;5077168;28;20047;-77
2023/05/19 02:17:58;;;;;;;46.28;22.98;;;384.90;2329.60;;;;;;5092427;28;20020;-72
2023/05/19 02:20:24;;;;;;;41.28;24.40;;;384.90;2329.60;;;;;;5095826;28;20458;-73
2023/05/19 02:22:50;;;;;;;44.53;24.05;;;409.60;2355.20;;;;;;5095567;28;20024;-72
2023/05/19 02:25:16;;;;;;;43.40;26.88;;;409.60;2355.20;;;;;;5092484;28;20027;-72
2023/05/19 02:27:41;;;;;;;42.72;26.65;;;409.70;2355.20;;;;;;5095116;28;20381;-72
2023/05/19 02:30:08;;;;;;;43.13;26.75;;;409.70;2355.20;;;;;;5077575;28;20145;-72
2023/05/19 02:32:35;;;;;;;47.05;26.45;;;409.70;2355.20;;;;;;5094595;28;20100;-72
2023/05/19 02:35:01;;;;;;;45.88;26.77;;;409.80;2355.20;;;;;;5094785;28;20059;-73
2023/05/19 02:37:28;;;;;;;49.67;29.30;;;409.70;2355.20;;;;;;5094920;28;20051;-73
2023/05/19 02:39:54;;;;;;;53.35;28.80;;;409.80;2355.20;;;;;;5076396;28;20055;-73
2023/05/19 02:42:20;;;;;;;53.83;28.27;;;409.80;2355.20;;;;;;5095038;28;20027;-73
2023/05/19 02:44:46;;;;;;;59.50;28.35;;;409.80;2355.20;;;;;;5094733;28;20107;-73
2023/05/19 02:47:12;;;;;;;43.78;26.88;;;409.90;2355.20;;;;;;5094734;28;20115;-72
2023/05/19 02:49:38;;;;;;;50.00;29.45;;;410.00;2355.20;;;;;;5091482;28;20024;-78
2023/05/19 02:52:04;;;;;;;49.65;27.80;;;410.00;2355.20;;;;;;5094806;28;20407;-74
2023/05/19 02:54:31;;;;;;;64.55;29.60;;;410.00;2355.20;;;;;;5094736;28;20020;-78
2023/05/19 02:56:56;;;;;;;50.72;28.85;;;410.00;2355.20;;;;;;5094501;28;20073;-72
2023/05/19 02:59:23;;;;;;;49.80;29.23;;;409.90;2355.20;;;;;;5093680;28;20024;-72
2023/05/19 03:01:49;;;;;;;53.65;28.27;;;410.00;2355.20;;;;;;5076246;28;20028;-71
2023/05/19 03:04:15;;;;;;;48.95;29.05;;;410.00;2355.20;;;;;;5094053;28;20039;-73
2023/05/19 03:06:41;;;;;;;46.97;28.30;;;410.00;2355.20;;;;;;5094274;28;20024;-76
2023/05/19 03:09:07;;;;;;;43.95;27.38;;;410.00;2355.20;;;;;;5094979;28;20058;-73
2023/05/19 03:11:32;;;;;;;52.30;28.08;;;410.00;2355.20;;;;;;5094307;28;20047;-73
2023/05/19 03:13:58;;;;;;;45.60;27.80;;;410.00;2355.20;;;;;;5094017;28;20024;-72
2023/05/19 03:16:24;;;;;;;45.33;25.83;;;410.00;2355.20;;;;;;5094410;28;20020;-74
2023/05/19 03:18:50;;;;;;;35.90;24.25;;;410.10;2355.20;;;;;;5094241;28;20102;-73
2023/05/19 03:21:15;;;;;;;38.80;23.48;;;410.10;2355.20;;;;;;5093851;28;20393;-74
2023/05/19 03:23:41;;;;;;;34.03;24.00;;;410.20;2355.20;;;;;;5093998;28;20028;-73
2023/05/19 03:26:07;;;;;;;45.28;24.30;;;410.00;2355.20;;;;;;5093965;28;20101;-75
2023/05/19 03:28:32;;;;;;;38.63;26.38;;;410.00;2355.20;;;;;;5093872;28;20023;-72
2023/05/19 03:30:58;;;;;;;38.78;25.20;;;410.00;2355.20;;;;;;5093749;28;20035;-74
2023/05/19 03:33:24;;;;;;;42.72;24.55;;;410.10;2355.20;;;;;;5093636;28;20076;-72
2023/05/19 03:35:51;;;;;;;37.28;22.17;;;410.10;2355.20;;;;;;5075670;28;20031;-77
2023/05/19 03:38:17;;;;;;;34.40;20.88;;;410.20;2355.20;;;;;;5093660;28;20039;-72
2023/05/19 03:40:43;;;;;;;38.85;20.40;;;410.10;2355.20;;;;;;5093665;28;20066;-75
2023/05/19 03:43:09;;;;;;;37.80;21.17;;;410.10;2355.20;;;;;;5093583;28;20016;-73
2023/05/19 03:45:35;;;;;;;33.15;20.25;;;410.20;2355.20;;;;;;5093681;28;20078;-72
2023/05/19 03:48:00;;;;;;;36.50;21.30;;;410.20;2355.20;;;;;;5093406;28;20027;-73
2023/05/19 03:50:27;;;;;;;29.15;19.52;;;410.20;2355.20;;;;;;5092879;28;20466;-71
2023/05/19 03:52:54;;;;;;;32.28;19.27;;;410.20;2022.40;;;;;;5093794;28;20462;-73
2023/05/19 03:55:20;;;;;;;32.95;19.00;;;410.10;2355.20;;;;;;5075448;28;20619;-71
2023/05/19 03:57:46;;;;;;;34.42;18.75;;;410.10;2355.20;;;;;;5093032;28;20028;-71
2023/05/19 04:00:12;;;;;;;28.02;17.63;;;410.10;2355.20;;;;;;5093111;28;20491;-71
2023/05/19 04:02:38;;;;;;;32.72;19.52;;;410.00;2355.20;;;;;;5092916;28;20055;-73
2023/05/19 04:05:04;;;;;;;33.58;20.58;;;410.00;2073.60;;;;;;5090428;28;20064;-73
2023/05/19 04:07:30;;;;;;;34.50;20.40;;;410.00;2355.20;;;;;;5092838;28;20048;-72
2023/05/19 04:09:56;;;;;;;37.35;19.55;;;410.00;2355.20;;;;;;5074889;28;20405;-72
2023/05/19 04:12:22;;;;;;;28.33;18.52;;;410.00;2355.20;;;;;;5092488;28;20016;-72
2023/05/19 04:14:48;;;;;;;33.95;21.27;;;409.90;2355.20;;;;;;5092856;28;20024;-72
2023/05/19 04:17:14;;;;;;;29.13;17.42;;;409.90;2278.40;;;;;;5092571;28;20061;-72
2023/05/19 04:19:39;;;;;;;32.95;19.33;;;409.90;2355.20;;;;;;5074434;28;20035;-72
2023/05/19 04:22:05;;;;;;;30.08;17.88;;;409.80;2355.20;;;;;;5092952;28;20013;-72
2023/05/19 04:24:32;;;;;;;25.45;17.05;;;409.80;2355.20;;;;;;5093942;28;20442;-72
2023/05/19 04:27:01;;;;;;;26.15;16.45;;;409.80;2355.20;;;;;;5093838;28;20016;-72
2023/05/19 04:29:28;;;;;;;27.27;16.52;;;409.80;2073.60;;;;;;5093150;28;20027;-72
2023/05/19 04:31:54;;;;;;;25.25;16.80;;;409.80;2355.20;;;;;;5093989;28;20016;-72
2023/05/19 04:34:20;;;;;;;23.98;15.82;;;409.80;2355.20;;;;;;5091459;28;20516;-72
2023/05/19 04:36:46;;;;;;;26.13;17.92;;;409.90;2355.20;;;;;;5093634;28;20124;-72
2023/05/19 04:39:13;;;;;;;23.02;15.88;;;409.90;2355.20;;;;;;5093440;28;20019;-72
2023/05/19 04:41:39;;;;;;;25.48;16.83;;;409.90;2355.20;;;;;;5093948;28;20050;-72
2023/05/19 04:44:08;;;;;;;27.38;15.60;;;409.90;2355.20;;;;;;5091440;28;20226;-72
2023/05/19 04:46:34;;;;;;;24.88;16.38;;;410.00;2355.20;;;;;;5091714;28;20024;-79
2023/05/19 04:49:00;;;;;;;31.70;17.58;;;410.00;2355.20;;;;;;5093681;28;20028;-80
2023/05/19 04:51:26;;;;;;;32.88;18.15;;;410.00;2355.20;;;;;;5093636;28;20469;-74
2023/05/19 04:53:55;;;;;;;28.88;17.80;;;410.00;2355.20;;;;;;5093434;28;20035;-74
2023/05/19 04:56:21;;;;;;;25.35;16.02;;;410.10;2355.20;;;;;;5092891;28;20086;-73
2023/05/19 04:58:47;;;;;;;25.70;15.55;;;410.10;2355.20;;;;;;5093707;28;20028;-74
2023/05/19 05:01:14;;;;;;;24.08;14.93;;;410.20;2355.20;;;;;;5093409;28;20024;-73
2023/05/19 05:03:40;;;;;;;24.55;15.27;;;410.00;2355.20;;;;;;5093287;28;20541;-72
2023/05/19 05:06:06;;;;;;;26.55;16.17;;;410.00;2355.20;;;;;;5093254;28;20032;-77
2023/05/19 05:08:32;;;;;;;22.70;14.20;;;410.00;2355.20;;;;;;5092128;28;20017;-74
2023/05/19 05:10:58;;;;;;;23.13;15.00;;;409.90;2355.20;;;;;;5098434;28;20028;-74
2023/05/19 05:13:24;;;;;;;22.67;14.73;;;409.80;2355.20;;;;;;5098613;28;20115;-74
2023/05/19 05:15:54;;;;;;;20.90;15.10;;;409.90;2355.20;;;;;;5101909;28;20028;-73
2023/05/19 05:18:21;;;;;;;20.80;14.95;;;409.90;2355.20;;;;;;5093262;28;20027;-74
2023/05/19 05:20:47;;;;;;;21.38;14.10;;;410.00;2355.20;;;;;;5099843;28;20024;-74
2023/05/19 05:23:13;;;;;;;22.25;15.10;;;409.90;2355.20;;;;;;5101519;28;20046;-74
2023/05/19 05:25:40;;;;;;;27.00;16.30;;;409.80;2355.20;;;;;;5101945;28;20026;-74
2023/05/19 05:28:06;;;;;;;25.65;15.20;;;409.80;2355.20;;;;;;5097100;28;20024;-75
2023/05/19 05:30:33;;;;;;;22.25;14.80;;;409.80;2355.20;;;;;;5100076;28;20024;-74
2023/05/19 05:33:00;;;;;;;22.13;14.70;;;409.80;2355.20;;;;;;5097274;28;20463;-73
2023/05/19 05:35:26;;;;;;;20.98;14.23;;;409.80;2355.20;;;;;;5099340;28;20032;-74
2023/05/19 05:37:52;;;;;;;19.30;13.95;;;409.90;2355.20;;;;;;5099531;28;20050;-73
2023/05/19 05:40:18;;;;;;;20.75;14.00;;;409.90;2355.20;;;;;;5107186;28;20035;-73
2023/05/19 05:42:44;;;;;;;21.27;13.50;;;409.90;2355.20;;;;;;5101567;28;20387;-74
2023/05/19 05:45:09;;;;;;;21.73;13.23;;;409.90;2355.20;;;;;;5101406;28;20131;-73
2023/05/19 05:47:40;;;;;;;22.10;13.15;;;409.90;2355.20;;;;;;5101366;28;20027;-76
2023/05/19 05:50:07;;;;;;;30.38;16.30;;;409.90;2355.20;;;;;;5101272;28;20060;-73
2023/05/19 05:52:36;;;;;;;24.85;15.38;;;409.80;2355.20;;;;;;5112105;28;20099;-74
2023/05/19 05:55:02;;;;;;;27.17;16.13;;;409.90;2355.20;;;;;;5101381;27;20024;-73
2023/05/19 05:57:29;;;;;;;26.70;17.15;;;409.90;2355.20;;;;;;5104735;28;20038;-72
2023/05/19 05:59:55;;;;;;;23.38;15.20;;;410.00;2355.20;;;;;;5100458;28;20039;-73
2023/05/19 06:02:21;;;;;;;26.30;18.50;;;410.00;2355.20;;;;;;5109620;28;20025;-74
2023/05/19 06:04:47;;;;;;;28.77;19.45;;;409.90;2355.20;;;;;;5100503;28;20378;-73
2023/05/19 06:07:13;;;;;;;28.90;20.73;;;410.00;2355.20;;;;;;5101803;28;20016;-73
2023/05/19 06:09:38;;;;;;;34.35;21.92;;;410.00;2355.20;;;;;;5094138;28;20061;-72
2023/05/19 06:12:05;;;;;;;34.70;20.88;;;410.00;2355.20;;;;;;5104384;28;20025;-72
2023/05/19 06:14:31;;;;;;;32.45;20.35;;;410.00;2355.20;;;;;;5103483;28;20020;-74
2023/05/19 06:16:56;;;;;;;33.35;21.33;;;410.00;2355.20;;;;;;5110431;28;20019;-72
2023/05/19 06:19:24;;;;;;;33.30;18.33;;;410.10;2355.20;;;;;;5099532;28;20358;-73
2023/05/19 06:21:50;;;;;;;25.48;19.02;;;410.10;2355.20;;;;;;5103985;28;20024;-75
2023/05/19 06:24:16;;;;;;;29.52;20.00;;;410.00;2048.00;;;;;;5109196;28;20043;-72
2023/05/19 06:26:41;;;;;;;28.10;19.15;;;409.90;2355.20;;;;;;5101884;28;20089;-75
2023/05/19 06:29:07;;;;;;;24.02;18.08;;;409.90;2355.20;;;;;;5100505;28;20034;-72
2023/05/19 06:31:32;;;;;;;20.90;14.98;;;409.80;2355.20;;;;;;5106089;28;20032;-72
2023/05/19 06:33:58;;;;;;;23.50;14.95;;;409.80;2355.20;;;;;;5103266;28;20837;-72
2023/05/19 06:36:24;;;;;;;25.35;13.93;;;409.90;2304.00;;;;;;5104715;28;20081;-71
2023/05/19 06:38:50;;;;;;;22.15;14.10;;;409.90;2355.20;;;;;;5105814;28;20130;-73
2023/05/19 06:41:16;;;;;;;23.42;16.70;;;409.90;2304.00;;;;;;5108994;28;20024;-76
2023/05/19 06:43:42;;;;;;;26.48;17.17;;;410.00;2278.40;;;;;;5105104;28;20560;-72
2023/05/19 06:46:07;;;;;;;21.85;12.73;;;410.00;1971.20;;;;;;5101197;28;20441;-71
2023/05/19 06:48:33;;;;;;;20.33;14.65;;;410.00;2355.20;;;;;;5106037;28;20099;-71
2023/05/19 06:50:59;;;;;;;24.48;15.25;;;410.00;2355.20;;;;;;5108056;28;20496;-70
2023/05/19 06:53:25;;;;;;;18.70;14.73;;;410.00;2201.60;;;;;;5102414;28;20076;-71
2023/05/19 06:55:51;;;;;;;20.98;14.15;;;410.00;2073.60;;;;;;5104546;28;20028;-72
2023/05/19 06:58:16;;;;;;;26.42;13.27;;;410.00;2355.20;;;;;;5111019;28;20035;-72
2023/05/19 07:00:42;;;;;;;22.88;12.23;;;410.00;2176.00;;;;;;5088505;28;20043;-71
2023/05/19 07:03:08;;;;;;;16.35;12.05;;;410.00;2278.40;;;;;;5103318;28;20036;-71
2023/05/19 07:05:34;;;;;;;16.45;11.65;;;409.90;2176.00;;;;;;5100803;28;20035;-71
2023/05/19 07:08:00;;;;;;;21.02;13.23;;;410.00;2355.20;;;;;;5098121;28;20385;-71
2023/05/19 07:10:26;;;;;;;18.80;13.15;;;409.90;2022.40;;;;;;5102452;28;20028;-73
2023/05/19 07:12:52;;;;;;;20.38;13.75;;;409.90;2124.80;;;;;;5101997;28;20063;-71
2023/05/19 07:15:18;;;;;;;16.92;13.25;;;409.90;2252.80;;;;;;5103694;28;20411;-71
2023/05/19 07:17:43;;;;;;;15.77;11.45;;;410.00;2022.40;;;;;;5100502;28;20107;-72
2023/05/19 07:20:10;;;;;;;17.98;12.93;;;410.00;2355.20;;;;;;5085579;28;20081;-71
2023/05/19 07:22:38;;;;;;;18.83;12.07;;;410.00;2355.20;;;;;;5106600;28;20024;-72
2023/05/19 07:25:05;;;;;;;18.23;12.50;;;410.00;2355.20;;;;;;5099383;28;20036;-72
2023/05/19 07:27:30;;;;;;;19.13;12.10;;;410.00;2355.20;;;;;;5103028;28;20020;-72
2023/05/19 07:29:57;;;;;;;19.30;12.35;;;410.00;2355.20;;;;;;5097282;28;20573;-72
2023/05/19 07:32:22;;;;;;;19.55;10.77;;;410.10;2355.20;;;;;;5106349;28;20023;-73
2023/05/19 07:34:48;;;;;;;17.88;11.40;;;410.20;2355.20;;;;;;5096361;28;20059;-72
2023/05/19 07:37:15;;;;;;;18.85;11.32;;;410.20;2355.20;;;;;;5102591;28;20024;-72
2023/05/19 07:39:40;;;;;;;14.20;10.55;;;410.20;2355.20;;;;;;5099172;28;20040;-72
2023/05/19 07:42:06;;;;;;;18.90;12.18;;;410.20;2355.20;;;;;;5097046;28;20061;-72
2023/05/19 07:44:33;;;;;;;18.33;12.13;;;410.20;2355.20;;;;;;5100756;28;20035;-71
2023/05/19 07:46:59;;;;;;;16.17;10.88;;;410.10;2355.20;;;;;;5096719;28;20433;-76
2023/05/19 07:49:25;;;;;;;24.63;13.23;;;410.20;2355.20;;;;;;5101467;28;20026;-72
2023/05/19 07:51:51;;;;;;;17.20;12.68;;;410.20;2355.20;;;;;;5101256;28;20027;-73
2023/05/19 07:54:17;;;;;;;14.48;9.85;;;410.30;2355.20;;;;;;5091866;28;20020;-75
2023/05/19 07:56:43;;;;;;;14.63;9.60;;;410.30;2355.20;;;;;;5094552;28;20040;-70
2023/05/19 07:59:09;;;;;;;15.95;10.38;;;410.30;2355.20;;;;;;5099372;28;20520;-71
2023/05/19 08:01:34;;;;;;;15.93;11.32;;;410.30;2355.20;;;;;;5097621;28;20066;-71
2023/05/19 08:04:00;;;;;;;18.95;12.75;;;410.30;2355.20;;;;;;5098370;28;20435;-69
2023/05/19 08:06:27;;;;;;;17.38;13.40;;;410.30;2355.20;;;;;;5099026;28;20028;-71
2023/05/19 08:08:53;;;;;;;25.23;13.57;;;410.20;2355.20;;;;;;5098233;28;20023;-70
2023/05/19 08:11:18;;;;;;;20.38;12.48;;;410.30;2355.20;;;;;;5095605;28;20028;-72
2023/05/19 08:13:47;;;;;;;215.43;64.20;;;410.40;2355.20;;;;;;5104983;28;20138;-71
2023/05/19 08:16:13;;;;;;;35.22;18.17;;;435.20;2355.20;;;;;;5098253;28;20020;-72
2023/05/19 08:18:39;;;;;;;22.90;13.50;;;435.30;2355.20;;;;;;5103922;28;20046;-71
2023/05/19 08:21:05;;;;;;;16.20;11.50;;;435.30;2355.20;;;;;;5098299;28;20107;-71
2023/05/19 08:23:31;;;;;;;14.90;10.77;;;435.30;2355.20;;;;;;5099165;28;20103;-70
2023/05/19 08:25:56;;;;;;;14.93;10.85;;;435.30;2355.20;;;;;;5101769;28;20102;-70
2023/05/19 08:28:22;;;;;;;26.60;13.00;;;435.40;2355.20;;;;;;5108902;28;20477;-71
2023/05/19 08:30:50;;;;;;;28.02;13.57;;;435.50;2355.20;;;;;;5101298;28;20444;-70
2023/05/19 08:33:16;;;;;;;18.48;11.98;;;435.50;2355.20;;;;;;5097361;28;20097;-71
2023/05/19 08:35:42;;;;;;;14.52;10.35;;;435.50;2355.20;;;;;;5106358;28;20031;-71
2023/05/19 08:38:08;;;;;;;15.77;11.10;;;435.50;2355.20;;;;;;5101401;28;20052;-71
2023/05/19 08:40:36;;;;;;;33.22;16.65;;;435.50;2355.20;;;;;;5101430;28;20063;-71
2023/05/19 08:43:02;;;;;;;27.58;15.10;;;435.50;2355.20;;;;;;5095730;28;20019;-70
2023/05/19 08:45:28;;;;;;;25.20;13.18;;;435.50;2355.20;;;;;;5107705;28;20509;-72
2023/05/19 08:47:55;;;;;;;20.50;14.13;;;435.50;2355.20;;;;;;5102621;28;20026;-76
2023/05/19 08:50:29;;;;;;;18.10;13.52;;;435.50;2355.20;;;;;;5099251;28;20027;-71
2023/05/19 08:53:08;;;;;;;17.75;13.50;;;435.50;2355.20;;;;;;5093446;28;20035;-72
2023/05/19 08:56:00;;;;;;;18.20;13.30;;;435.50;2355.20;;;;;;5099933;28;20107;-72
2023/05/19 08:58:26;;;;;;;20.73;13.77;;;435.50;2355.20;;;;;;5093911;28;20035;-71
2023/05/19 09:00:54;;;;;;;15.00;12.95;;;435.50;2355.20;;;;;;5107724;28;20473;-72
2023/05/19 09:03:21;;;;;;;17.90;12.57;;;435.50;2355.20;;;;;;5101824;28;20078;-72
2023/05/19 09:05:47;;;;;;;14.13;11.88;;;435.50;2355.20;;;;;;5095838;28;20020;-71
2023/05/19 09:08:13;;;;;;;17.23;10.80;;;435.50;2355.20;;;;;;5099314;28;20107;-71
2023/05/19 09:10:38;;;;;;;19.02;14.50;;;435.50;2355.20;;;;;;5103951;28;20468;-71
2023/05/19 09:13:05;;;;;;;19.45;14.82;;;435.50;2355.20;;;;;;5103219;28;20110;-71
2023/05/19 09:15:32;;;;;;;26.33;14.65;;;435.50;2355.20;;;;;;5098190;28;20089;-71
2023/05/19 09:18:13;;;;;;;25.52;18.65;;;435.50;2355.20;;;;;;5100989;28;20106;-71
2023/05/19 09:20:41;;;;;;;18.55;12.57;;;435.50;2355.20;;;;;;5100058;28;20538;-70
2023/05/19 09:23:07;;;;;;;20.30;13.60;;;435.40;2355.20;;;;;;5107350;28;20030;-72
2023/05/19 09:25:33;;;;;;;18.92;12.82;;;435.40;2355.20;;;;;;5103053;28;20036;-72
2023/05/19 09:27:58;;;;;;;12.45;10.13;;;435.50;2355.20;;;;;;5096966;28;20097;-71
2023/05/19 09:30:24;;;;;;;16.83;10.57;;;435.50;2355.20;;;;;;5098772;28;20031;-72
2023/05/19 09:32:50;;;;;;;11.70;8.82;;;435.50;2355.20;;;;;;5097607;28;20032;-73
2023/05/19 09:35:18;;;;;;;19.95;8.88;;;435.50;2355.20;;;;;;5095661;28;20135;-71
2023/05/19 09:37:45;;;;;;;15.77;9.85;;;435.60;2355.20;;;;;;5105027;28;20485;-72
2023/05/19 09:40:14;;;;;;;16.80;10.00;;;435.70;2355.20;;;;;;5102555;28;20035;-72
2023/05/19 09:42:41;;;;;;;17.85;10.13;;;435.70;2355.20;;;;;;5096029;28;20073;-72
2023/05/19 09:45:08;;;;;;;14.98;10.82;;;435.80;2355.20;;;;;;5093423;28;20036;-72
2023/05/19 09:47:40;;;;;;;21.23;15.02;;;435.80;2355.20;;;;;;5100121;28;20020;-72
2023/05/19 09:50:09;;;;;;;25.23;15.32;;;435.90;2355.20;;;;;;5098727;28;20032;-72
2023/05/19 09:52:39;;;;;;;24.60;14.63;;;435.90;2355.20;;;;;;5101554;28;20032;-72
2023/05/19 09:55:09;;;;;;;21.10;13.98;;;435.90;2355.20;;;;;;5088711;28;20031;-71
2023/05/19 09:57:36;;;;;;;24.42;14.57;;;435.90;2355.20;;;;;;5095944;28;20031;-71
2023/05/19 10:00:19;;;;;;;21.65;14.30;;;436.00;2355.20;;;;;;5095534;28;20103;-73
2023/05/19 10:02:47;;;;;;;17.35;11.68;;;436.00;2355.20;;;;;;5078897;28;20104;-72
2023/05/19 10:05:18;;;;;;;16.48;10.95;;;460.80;2380.80;;;;;;5096034;28;20159;-74
2023/05/19 10:07:47;;;;;;;14.52;10.18;;;460.90;2380.80;;;;;;5103746;28;20027;-71
2023/05/19 10:10:14;;;;;;;14.20;10.63;;;461.00;2380.80;;;;;;5098102;28;20078;-72
2023/05/19 10:12:41;;;;;;;15.30;10.32;;;461.00;2380.80;;;;;;5096752;28;20077;-71
2023/05/19 10:15:11;;;;;;;16.13;11.43;;;461.10;2380.80;;;;;;5099051;28;20058;-71
2023/05/19 10:17:39;;;;;;;15.65;11.68;;;461.20;2380.80;;;;;;5101031;28;20032;-72
2023/05/19 10:20:13;;;;;;;18.27;11.43;;;461.30;2380.80;;;;;;5095605;28;20386;-71
2023/05/19 10:22:40;;;;;;;14.90;10.75;;;461.50;2380.80;;;;;;5109117;28;20043;-71
2023/05/19 10:25:07;;;;;;;17.60;10.27;;;461.50;2380.80;;;;;;5104897;28;20035;-71
2023/05/19 10:27:39;;;;;;;14.50;10.38;;;461.50;2380.80;;;;;;5091036;28;20027;-72
2023/05/19 10:30:16;;;;;;;14.90;10.20;;;461.50;2380.80;;;;;;5106924;28;20166;-71
2023/05/19 10:32:43;;;;;;;13.25;10.35;;;461.50;2380.80;;;;;;5107842;28;20040;-71
2023/05/19 10:35:34;;;;;;;16.80;10.50;;;461.50;2380.80;;;;;;5100454;28;20043;-72
2023/05/19 10:38:17;;;;;;;13.38;8.98;;;461.60;2380.80;;;;;;5099874;28;20425;-71
2023/05/19 10:41:10;;;;;;;13.48;9.00;;;461.70;2380.80;;;;;;5103157;28;20029;-71
2023/05/19 10:43:45;;;;;;;18.63;8.73;;;486.40;2380.80;;;;;;5047279;28;20115;-71
2023/05/19 10:46:10;;;;;;;10.55;8.90;;;486.50;2380.80;;;;;;5041056;28;20041;-71
2023/05/19 10:48:36;;;;;;;15.57;8.88;;;486.50;2380.80;;;;;;5057071;28;20087;-70
2023/05/19 10:51:03;;;;;;;13.77;9.95;;;486.60;2380.80;;;;;;5067160;28;20028;-71
2023/05/19 10:53:33;;;;;;;14.18;10.20;;;486.70;2380.80;;;;;;5066904;28;20060;-71
2023/05/19 10:56:05;;;;;;;12.95;10.25;;;486.80;2380.80;;;;;;5060194;28;20075;-71
2023/05/19 10:58:38;;;;;;;12.80;8.10;;;486.80;2380.80;;;;;;5055825;28;20024;-71
2023/05/19 11:01:15;;;;;;;11.70;8.35;;;486.90;2380.80;;;;;;5052448;28;20574;-71
2023/05/19 11:03:45;;;;;;;13.40;8.82;;;486.90;2380.80;;;;;;5055297;28;20059;-71
2023/05/19 11:06:17;;;;;;;12.57;9.52;;;486.80;2380.80;;;;;;5058341;28;20028;-75
2023/05/19 11:08:43;;;;;;;13.02;8.82;;;486.90;2380.80;;;;;;5046267;28;20809;-72
2023/05/19 11:11:14;;;;;;;11.30;9.38;;;486.90;2380.80;;;;;;5055618;28;20504;-72
2023/05/19 11:13:46;;;;;;;14.20;9.23;;;486.90;2380.80;;;;;;5067641;28;20043;-70
2023/05/19 11:16:12;;;;;;;13.95;10.25;;;487.00;2380.80;;;;;;5069940;28;20078;-71
2023/05/19 11:18:38;;;;;;;16.25;9.00;;;487.00;2380.80;;;;;;5067557;28;20025;-71
2023/05/19 11:21:04;;;;;;;11.05;9.07;;;487.10;2380.80;;;;;;5087577;28;20123;-70
2023/05/19 11:23:36;;;;;;;14.35;9.00;;;512.30;2380.80;;;;;;5101499;28;20115;-71
2023/05/19 11:26:02;;;;;;;20.35;9.88;;;512.40;2380.80;;;;;;5098860;28;20133;-71
2023/05/19 11:28:28;;;;;;;11.25;8.73;;;512.40;2380.80;;;;;;5098840;27;20020;-71
2023/05/19 11:30:57;;;;;;;15.90;9.60;;;512.50;2380.80;;;;;;5103473;28;20051;-73
2023/05/19 11:33:27;;;;;;;15.07;9.95;;;;;;;;;;5101925;28;20036;-70
2023/05/19 11:35:58;;;;;;;15.75;9.88;;;;;;;;;;5109005;28;20027;-70
2023/05/19 11:38:24;;;;;;;14.02;8.50;;;;;;;;;;5105795;28;20026;-70
2023/05/19 11:40:53;;;;;;;12.38;8.75;;;;;;;;;;5100910;28;20107;-71
2023/05/19 11:43:22;;;;;;;17.10;9.35;;;538.10;2406.40;;;;;;5108400;28;20417;-72
2023/05/19 11:45:48;;;;;;;19.20;10.38;;;538.00;2406.40;;;;;;5102090;28;20595;-71
2023/05/19 11:48:17;;;;;;;15.38;9.57;;;537.90;2406.40;;;;;;5097889;28;20024;-72
2023/05/19 11:50:42;;;;;;;13.05;9.82;;;537.60;2406.40;;;;;;5101209;28;20511;-71
2023/05/19 11:53:15;;;;;;;14.20;10.40;;;537.90;2406.40;;;;;;5106603;28;20318;-72
2023/05/19 11:55:47;;;;;;;16.60;9.93;;;537.90;2406.40;;;;;;5104794;28;20069;-72
2023/05/19 11:58:13;;;;;;;17.38;9.43;;;538.20;2406.40;;;;;;5103417;28;20047;-71
2023/05/19 12:00:40;;;;;;;12.23;9.55;;;538.50;2406.40;;;;;;5103928;28;20055;-71
2023/05/19 12:03:07;;;;;;;13.68;9.35;;;538.50;2406.40;;;;;;5096898;28;20026;-72
2023/05/19 12:05:36;;;;;;;13.82;9.27;;;538.10;2406.40;;;;;;5101487;28;20499;-71